createdAt,value
2014-08-13T22:15:56.566Z,99860
2014-08-13T22:16:14.926Z,99866
2014-08-13T22:16:32.520Z,99863
2014-08-13T22:16:50.723Z,99863
2014-08-13T22:17:08.443Z,99857
2014-08-13T22:17:26.678Z,99854
2014-08-13T22:17:44.897Z,99860
2014-08-13T22:18:03.242Z,99851
2014-08-13T22:18:21.461Z,99845
2014-08-13T22:18:39.680Z,99854
2014-08-13T22:18:57.258Z,99854
2014-08-13T22:19:14.854Z,99851
2014-08-13T22:19:32.432Z,99857
2014-08-13T22:19:50.651Z,99857
2014-08-13T22:20:08.246Z,99866
2014-08-13T22:20:25.840Z,99863
2014-08-13T22:20:43.434Z,99854
2014-08-13T22:21:01.653Z,99854
2014-08-13T22:21:18.623Z,99857
2014-08-13T22:21:36.201Z,99860
2014-08-13T22:21:54.420Z,99860
2014-08-13T22:22:12.000Z,99860
2014-08-13T22:22:30.219Z,99863
2014-08-13T22:22:48.438Z,99863
2014-08-13T22:23:06.157Z,99860
2014-08-13T22:23:24.378Z,99854
2014-08-13T22:23:41.472Z,99860
2014-08-13T22:23:59.691Z,99857
2014-08-13T22:24:17.911Z,99857
2014-08-13T22:24:36.145Z,99857
2014-08-13T22:24:54.364Z,99863
2014-08-13T22:25:12.567Z,99860
2014-08-13T22:25:30.788Z,99857
2014-08-13T22:25:49.006Z,99857
2014-08-13T22:26:07.241Z,99857
2014-08-13T22:26:25.462Z,99854
2014-08-13T22:26:43.681Z,99845
2014-08-13T22:27:00.634Z,99854
2014-08-13T22:27:18.853Z,99854
2014-08-13T22:27:37.073Z,99848
2014-08-13T22:27:55.292Z,99857
2014-08-13T22:28:13.010Z,99845
2014-08-13T22:28:31.231Z,99848
2014-08-13T22:28:48.809Z,99851
2014-08-13T22:29:06.403Z,99840
2014-08-13T22:29:24.622Z,99848
2014-08-13T22:29:42.842Z,99840
2014-08-13T22:30:01.061Z,99843
2014-08-13T22:30:19.280Z,99843
2014-08-13T22:30:37.501Z,99834
2014-08-13T22:30:55.844Z,99848
2014-08-13T22:31:14.204Z,99848
2014-08-13T22:31:32.423Z,99848
2014-08-13T22:31:50.004Z,99837
2014-08-13T22:32:07.597Z,99834
2014-08-13T22:32:25.191Z,99860
2014-08-13T22:32:43.411Z,99845
2014-08-13T22:33:01.614Z,99843
2014-08-13T22:33:19.848Z,99848
2014-08-13T22:33:38.192Z,99848
2014-08-13T22:33:55.788Z,99845
2014-08-13T22:34:13.507Z,99851
2014-08-13T22:34:31.725Z,99848
2014-08-13T22:34:49.321Z,99840
2014-08-13T22:35:07.540Z,99848
2014-08-13T22:35:25.899Z,99854
2014-08-13T22:35:44.102Z,99857
2014-08-13T22:36:02.323Z,99851
2014-08-13T22:36:20.542Z,99857
2014-08-13T22:36:38.636Z,99857
2014-08-13T22:36:56.857Z,99860
2014-08-13T22:37:15.076Z,99857
2014-08-13T22:37:33.279Z,99860
2014-08-13T22:37:51.514Z,99857
2014-08-13T22:38:09.858Z,99848
2014-08-13T22:38:28.077Z,99860
2014-08-13T22:38:46.296Z,99854
2014-08-13T22:39:03.893Z,99851
2014-08-13T22:39:22.111Z,99854
2014-08-13T22:39:40.330Z,99854
2014-08-13T22:39:58.549Z,99860
2014-08-13T22:40:16.128Z,99851
2014-08-13T22:40:33.722Z,99851
2014-08-13T22:40:51.331Z,99857
2014-08-13T22:41:09.053Z,99851
2014-08-13T22:41:26.647Z,99854
2014-08-13T22:41:44.865Z,99851
2014-08-13T22:42:02.459Z,99845
2014-08-13T22:42:20.820Z,99851
2014-08-13T22:42:39.038Z,99854
2014-08-13T22:42:57.382Z,99851
2014-08-13T22:43:14.337Z,99848
2014-08-13T22:43:32.556Z,99848
2014-08-13T22:43:50.150Z,99854
2014-08-13T22:44:07.743Z,99848
2014-08-13T22:44:26.089Z,99854
2014-08-13T22:44:44.308Z,99840
2014-08-13T22:45:02.511Z,99857
2014-08-13T22:45:20.233Z,99845
2014-08-13T22:45:38.452Z,99854
2014-08-13T22:45:56.045Z,99843
2014-08-13T22:46:13.639Z,99845
2014-08-13T22:46:31.843Z,99851
2014-08-13T22:46:49.437Z,99854
2014-08-13T22:47:07.656Z,99840
2014-08-13T22:47:25.877Z,99845
2014-08-13T22:47:43.456Z,99845
2014-08-13T22:48:01.690Z,99851
2014-08-13T22:48:20.034Z,99851
2014-08-13T22:48:36.989Z,99845
2014-08-13T22:48:55.208Z,99845
2014-08-13T22:49:13.426Z,99848
2014-08-13T22:49:31.646Z,99843
2014-08-13T22:49:49.365Z,99848
2014-08-13T22:50:07.584Z,99840
2014-08-13T22:50:25.927Z,99845
2014-08-13T22:50:43.523Z,99848
2014-08-13T22:51:01.867Z,99851
2014-08-13T22:51:20.211Z,99854
2014-08-13T22:51:37.807Z,99845
2014-08-13T22:51:56.026Z,99845
2014-08-13T22:52:13.620Z,99860
2014-08-13T22:52:31.214Z,99857
2014-08-13T22:52:49.433Z,99854
2014-08-13T22:53:06.402Z,99860
2014-08-13T22:53:24.621Z,99851
2014-08-13T22:53:42.843Z,99851
2014-08-13T22:54:01.061Z,99857
2014-08-13T22:54:19.280Z,99851
2014-08-13T22:54:36.874Z,99866
2014-08-13T22:54:55.078Z,99857
2014-08-13T22:55:13.297Z,99857
2014-08-13T22:55:31.656Z,99857
2014-08-13T22:55:50.003Z,99860
2014-08-13T22:56:08.222Z,99863
2014-08-13T22:56:26.456Z,99857
2014-08-13T22:56:44.800Z,99860
2014-08-13T22:57:03.020Z,99857
2014-08-13T22:57:21.239Z,99851
2014-08-13T22:57:39.458Z,99857
2014-08-13T22:57:57.819Z,99857
2014-08-13T22:58:16.038Z,99863
2014-08-13T22:58:33.616Z,99863
2014-08-13T22:58:51.835Z,99863
2014-08-13T22:59:09.415Z,99848
2014-08-13T22:59:27.009Z,99863
2014-08-13T22:59:45.228Z,99863
2014-08-13T23:00:03.573Z,99857
2014-08-13T23:00:20.542Z,99869
2014-08-13T23:00:38.823Z,99851
2014-08-13T23:00:58.667Z,99863
2014-08-13T23:01:17.027Z,99860
2014-08-13T23:01:35.246Z,99863
2014-08-13T23:01:53.465Z,99857
2014-08-13T23:02:11.062Z,99854
2014-08-13T23:02:28.796Z,99854
2014-08-13T23:02:46.999Z,99854
2014-08-13T23:03:05.220Z,99869
2014-08-13T23:03:22.829Z,99860
2014-08-13T23:03:41.048Z,99854
2014-08-13T23:03:59.267Z,99854
2014-08-13T23:04:17.487Z,99857
2014-08-13T23:04:35.065Z,99863
2014-08-13T23:04:53.299Z,99851
2014-08-13T23:05:11.536Z,99866
2014-08-13T23:05:29.130Z,99857
2014-08-13T23:05:47.349Z,99854
2014-08-13T23:06:05.568Z,99866
2014-08-13T23:06:23.881Z,99860
2014-08-13T23:06:42.100Z,99869
2014-08-13T23:07:01.381Z,99866
2014-08-13T23:07:19.853Z,99866
2014-08-13T23:07:37.572Z,99866
2014-08-13T23:07:55.165Z,99854
2014-08-13T23:08:13.509Z,99863
2014-08-13T23:08:31.105Z,99863
2014-08-13T23:08:48.824Z,99869
2014-08-13T23:09:06.417Z,99866
2014-08-13T23:09:24.763Z,99860
2014-08-13T23:09:42.357Z,99854
2014-08-13T23:10:00.576Z,99860
2014-08-13T23:10:18.794Z,99866
2014-08-13T23:10:35.750Z,99871
2014-08-13T23:10:53.968Z,99860
2014-08-13T23:11:12.328Z,99866
2014-08-13T23:11:30.548Z,99860
2014-08-13T23:11:48.767Z,99866
2014-08-13T23:12:06.345Z,99866
2014-08-13T23:12:23.939Z,99869
2014-08-13T23:12:42.160Z,99869
2014-08-13T23:13:00.379Z,99866
2014-08-13T23:13:17.957Z,99866
2014-08-13T23:13:36.317Z,99863
2014-08-13T23:13:53.286Z,99866
2014-08-13T23:14:11.630Z,99869
2014-08-13T23:14:29.848Z,99866
2014-08-13T23:14:48.070Z,99866
2014-08-13T23:15:06.273Z,99866
2014-08-13T23:15:24.508Z,99871
2014-08-13T23:15:42.728Z,99869
2014-08-13T23:15:59.806Z,99877
2014-08-13T23:16:18.025Z,99877
2014-08-13T23:16:36.244Z,99871
2014-08-13T23:16:54.465Z,99877
2014-08-13T23:17:12.043Z,99880
2014-08-13T23:17:30.262Z,99889
2014-08-13T23:17:47.857Z,99880
2014-08-13T23:18:06.076Z,99877
2014-08-13T23:18:23.670Z,99874
2014-08-13T23:18:40.623Z,99892
2014-08-13T23:18:58.984Z,99883
2014-08-13T23:19:16.578Z,99877
2014-08-13T23:19:34.172Z,99883
2014-08-13T23:19:52.393Z,99866
2014-08-13T23:20:09.971Z,99883
2014-08-13T23:20:28.330Z,99880
2014-08-13T23:20:45.908Z,99886
2014-08-13T23:21:04.145Z,99880
2014-08-13T23:21:21.238Z,99874
2014-08-13T23:21:39.582Z,99877
2014-08-13T23:21:57.818Z,99877
2014-08-13T23:22:16.162Z,99874
2014-08-13T23:22:33.740Z,99883
2014-08-13T23:22:50.834Z,99877
2014-08-13T23:23:09.055Z,99866
2014-08-13T23:23:26.649Z,99874
2014-08-13T23:23:44.867Z,99869
2014-08-13T23:24:03.088Z,99869
2014-08-13T23:24:20.682Z,99866
2014-08-13T23:24:38.885Z,99874
2014-08-13T23:24:57.104Z,99871
2014-08-13T23:25:15.340Z,99880
2014-08-13T23:25:33.684Z,99871
2014-08-13T23:25:51.903Z,99871
2014-08-13T23:26:10.107Z,99869
2014-08-13T23:26:28.341Z,99869
2014-08-13T23:26:45.294Z,99871
2014-08-13T23:27:02.888Z,99869
2014-08-13T23:27:21.110Z,99874
2014-08-13T23:27:39.469Z,99866
2014-08-13T23:27:57.672Z,99874
2014-08-13T23:28:15.893Z,99869
2014-08-13T23:28:34.112Z,99869
2014-08-13T23:28:52.330Z,99866
2014-08-13T23:29:09.940Z,99871
2014-08-13T23:29:28.145Z,99863
2014-08-13T23:29:45.864Z,99869
2014-08-13T23:30:03.598Z,99863
2014-08-13T23:30:21.819Z,99863
2014-08-13T23:30:39.413Z,99869
2014-08-13T23:30:57.631Z,99863
2014-08-13T23:31:15.834Z,99866
2014-08-13T23:31:34.055Z,99863
2014-08-13T23:31:51.774Z,99857
2014-08-13T23:32:09.993Z,99874
2014-08-13T23:32:28.213Z,99866
2014-08-13T23:32:46.432Z,99863
2014-08-13T23:33:04.026Z,99874
2014-08-13T23:33:22.370Z,99866
2014-08-13T23:33:40.606Z,99863
2014-08-13T23:33:58.825Z,99871
2014-08-13T23:34:16.544Z,99874
2014-08-13T23:34:34.764Z,99874
2014-08-13T23:34:52.358Z,99874
2014-08-13T23:35:10.577Z,99871
2014-08-13T23:35:28.171Z,99863
2014-08-13T23:35:46.376Z,99880
2014-08-13T23:36:04.610Z,99877
2014-08-13T23:36:21.563Z,99874
